Time;durP1;ratioP1;P1;durP2;ratioP2;P2;SDS_P1;SDS_P2;PMS_P1;PMS_P2;Temp;Humidity;BMP_temperature;BMP_pressure;BME280_temperature;BME280_humidity;BME280_pressure;Samples;Min_cycle;Max_cycle;Signal;HPM_P1;HPM_P2
2023/01/15 00:01:36;;;;;;;0.10;0.10;;;7.00;82.60;;;;;;5021421;28;20107;-68
2023/01/15 00:04:03;;;;;;;0.30;0.30;;;7.10;82.50;;;;;;5020650;28;20069;-68
2023/01/15 00:06:30;;;;;;;0.00;0.00;;;7.00;82.40;;;;;;5025064;28;20041;-67
2023/01/15 00:08:55;;;;;;;0.00;0.00;;;7.00;82.70;;;;;;5011920;28;20061;-68
2023/01/15 00:11:22;;;;;;;0.00;0.00;;;7.00;82.90;;;;;;5023800;28;20556;-67
2023/01/15 00:13:48;;;;;;;0.00;0.00;;;7.00;82.50;;;;;;5012109;28;20042;-67
2023/01/15 00:16:19;;;;;;;0.00;0.00;;;7.00;82.50;;;;;;5007692;28;20056;-67
2023/01/15 00:18:59;;;;;;;0.00;0.00;;;7.00;82.40;;;;;;5010781;28;20103;-67
2023/01/15 00:21:25;;;;;;;0.00;0.00;;;6.90;82.50;;;;;;5025106;28;20052;-67
2023/01/15 00:29:23;;;;;;;0.00;0.00;;;6.90;82.30;;;;;;5015392;28;20057;-67
2023/01/15 00:32:01;;;;;;;0.00;0.00;;;7.00;81.80;;;;;;5022518;28;20042;-67
2023/01/15 00:34:28;;;;;;;0.00;0.00;;;7.00;82.00;;;;;;5007245;28;20038;-67
2023/01/15 00:36:53;;;;;;;0.00;0.00;;;7.00;81.60;;;;;;5027391;28;20494;-68
2023/01/15 00:39:19;;;;;;;0.10;0.10;;;7.00;81.40;;;;;;5029520;28;20120;-67
2023/01/15 00:41:44;;;;;;;0.00;0.00;;;7.00;81.70;;;;;;5024776;28;20050;-67
2023/01/15 00:44:10;;;;;;;0.40;0.40;;;7.00;81.50;;;;;;5008146;28;20041;-68
2023/01/15 00:46:36;;;;;;;0.88;0.80;;;7.10;81.80;;;;;;5016290;28;20205;-67
2023/01/15 00:49:03;;;;;;;0.00;0.00;;;7.00;82.00;;;;;;5029310;28;20472;-67
2023/01/15 00:51:28;;;;;;;0.00;0.00;;;6.90;82.00;;;;;;5021871;28;20045;-67
2023/01/15 00:53:54;;;;;;;0.00;0.00;;;7.00;82.10;;;;;;5029490;28;20041;-68
2023/01/15 00:56:19;;;;;;;0.00;0.00;;;7.00;81.80;;;;;;5020827;28;20046;-67
2023/01/15 00:58:46;;;;;;;0.00;0.00;;;7.00;82.00;;;;;;4999903;28;20557;-68
2023/01/15 01:01:13;;;;;;;0.00;0.00;;;7.00;82.10;;;;;;5017589;28;20049;-67
2023/01/15 01:03:39;;;;;;;0.13;0.08;;;7.00;82.00;;;;;;5026780;28;20047;-67
2023/01/15 01:06:05;;;;;;;0.00;0.00;;;7.00;82.30;;;;;;5021146;28;20045;-68
2023/01/15 01:08:31;;;;;;;0.00;0.00;;;6.90;82.60;;;;;;5028190;28;20125;-68
2023/01/15 01:11:08;;;;;;;0.00;0.00;;;6.90;82.60;;;;;;5021529;28;20565;-67
2023/01/15 01:13:35;;;;;;;0.00;0.00;;;7.00;82.20;;;;;;5019892;28;20045;-67
2023/01/15 01:16:01;;;;;;;0.00;0.00;;;7.00;81.70;;;;;;5018055;28;20045;-67
2023/01/15 01:18:27;;;;;;;0.38;0.38;;;7.00;81.70;;;;;;5011562;28;20060;-67
2023/01/15 01:20:52;;;;;;;0.03;0.03;;;6.90;81.50;;;;;;5009948;28;20046;-67
2023/01/15 01:23:18;;;;;;;0.00;0.00;;;6.90;81.80;;;;;;5008006;28;20493;-67
2023/01/15 01:25:45;;;;;;;0.00;0.00;;;6.90;81.60;;;;;;5021032;28;20033;-67
2023/01/15 01:28:10;;;;;;;0.00;0.00;;;6.90;81.80;;;;;;5019981;28;20042;-67
2023/01/15 01:30:37;;;;;;;0.00;0.00;;;7.00;81.60;;;;;;5025014;28;20047;-67
2023/01/15 01:33:03;;;;;;;0.00;0.00;;;6.90;81.20;;;;;;5023593;28;20053;-67
2023/01/15 01:35:28;;;;;;;4.95;2.55;;;6.90;81.10;;;;;;5027282;28;20048;-67
2023/01/15 01:37:54;;;;;;;0.10;0.10;;;7.00;81.10;;;;;;5026253;28;20052;-68
2023/01/15 01:40:19;;;;;;;0.00;0.00;;;7.00;80.80;;;;;;5009639;28;20046;-67
2023/01/15 01:42:45;;;;;;;0.00;0.00;;;6.90;81.30;;;;;;5018677;28;20507;-68
2023/01/15 01:45:31;;;;;;;0.00;0.00;;;7.00;81.60;;;;;;5010764;28;20491;-68
2023/01/15 01:48:01;;;;;;;0.00;0.00;;;6.80;81.50;;;;;;4997936;28;20064;-67
2023/01/15 01:50:28;;;;;;;0.20;0.20;;;6.90;81.50;;;;;;5011441;28;20034;-67
2023/01/15 01:53:07;;;;;;;0.00;0.00;;;6.90;81.10;;;;;;5012074;28;20072;-68
2023/01/15 01:55:33;;;;;;;1.10;1.00;;;6.90;80.90;;;;;;5012981;28;20399;-68
2023/01/15 01:58:01;;;;;;;0.00;0.00;;;6.90;80.90;;;;;;5016613;28;20720;-67
2023/01/15 02:00:28;;;;;;;0.00;0.00;;;6.90;81.10;;;;;;5010594;28;20050;-68
2023/01/15 02:02:54;;;;;;;0.10;0.10;;;6.90;80.50;;;;;;5011054;28;20045;-67
2023/01/15 02:05:31;;;;;;;0.00;0.00;;;6.80;80.60;;;;;;5010506;28;20065;-67
2023/01/15 02:07:56;;;;;;;0.00;0.00;;;6.80;81.00;;;;;;5012153;28;20053;-68
2023/01/15 02:10:22;;;;;;;0.00;0.00;;;6.80;81.00;;;;;;5011893;28;20034;-68
2023/01/15 02:12:59;;;;;;;0.00;0.00;;;6.80;80.90;;;;;;5013894;28;20044;-68
2023/01/15 02:15:34;;;;;;;0.00;0.00;;;6.80;80.90;;;;;;5011061;28;20042;-68
2023/01/15 02:18:39;;;;;;;0.00;0.00;;;6.90;81.00;;;;;;5010210;28;20049;-68
2023/01/15 02:21:23;;;;;;;0.00;0.00;;;6.90;80.90;;;;;;5014901;28;20099;-68
2023/01/15 02:24:08;;;;;;;0.00;0.00;;;6.80;81.00;;;;;;5015082;28;20051;-68
2023/01/15 02:26:53;;;;;;;0.00;0.00;;;6.80;80.80;;;;;;4996591;28;20038;-67
2023/01/15 02:29:37;;;;;;;0.03;0.03;;;6.90;81.00;;;;;;5014800;28;20049;-67
2023/01/15 02:32:09;;;;;;;0.10;0.10;;;6.80;81.20;;;;;;5003436;28;20499;-67
2023/01/15 02:34:37;;;;;;;0.00;0.00;;;6.80;81.20;;;;;;5013440;28;20053;-67
2023/01/15 02:37:17;;;;;;;0.00;0.00;;;6.90;81.40;;;;;;5014978;28;20048;-67
2023/01/15 02:39:45;;;;;;;0.00;0.00;;;6.70;80.90;;;;;;5012641;28;20125;-67
2023/01/15 02:42:13;;;;;;;0.00;0.00;;;6.80;80.80;;;;;;5017840;28;20050;-68
2023/01/15 02:44:43;;;;;;;0.05;0.05;;;6.80;80.80;;;;;;5013590;28;20049;-67
2023/01/15 02:47:09;;;;;;;0.00;0.00;;;6.80;80.10;;;;;;5021416;28;20111;-67
2023/01/15 02:49:38;;;;;;;0.93;0.88;;;6.80;80.30;;;;;;5026978;28;20065;-67
2023/01/15 02:52:08;;;;;;;0.40;0.40;;;6.80;80.40;;;;;;5015299;28;20045;-67
2023/01/15 02:54:44;;;;;;;0.00;0.00;;;6.80;80.80;;;;;;5013511;28;20079;-67
2023/01/15 02:57:10;;;;;;;0.00;0.00;;;6.80;81.00;;;;;;5012704;28;20096;-67
2023/01/15 02:59:40;;;;;;;0.80;0.47;;;6.80;81.20;;;;;;5029685;28;20457;-67
2023/01/15 03:02:12;;;;;;;0.38;0.38;;;6.80;81.40;;;;;;5032535;28;20049;-68
2023/01/15 03:04:46;;;;;;;0.00;0.00;;;6.70;81.60;;;;;;5022463;28;20049;-67
2023/01/15 03:07:20;;;;;;;0.00;0.00;;;6.70;81.70;;;;;;5018785;28;20147;-67
2023/01/15 03:09:47;;;;;;;0.00;0.00;;;6.60;81.80;;;;;;4996692;28;20033;-67
2023/01/15 03:12:18;;;;;;;0.00;0.00;;;6.70;82.10;;;;;;5021111;28;20045;-67
2023/01/15 03:15:04;;;;;;;0.57;0.57;;;6.70;82.50;;;;;;5020536;28;20044;-68
2023/01/15 03:17:54;;;;;;;0.00;0.00;;;6.60;82.90;;;;;;5020612;28;20619;-67
2023/01/15 03:20:24;;;;;;;0.00;0.00;;;6.60;82.60;;;;;;5021435;28;20401;-68
2023/01/15 03:22:55;;;;;;;0.20;0.20;;;6.60;82.20;;;;;;5017394;28;20045;-68
2023/01/15 03:25:29;;;;;;;0.77;0.75;;;6.60;81.80;;;;;;5018899;28;20080;-67
2023/01/15 03:28:00;;;;;;;0.10;0.10;;;6.50;81.80;;;;;;5031956;28;20099;-68
2023/01/15 03:30:26;;;;;;;0.00;0.00;;;6.50;81.80;;;;;;5002354;28;20613;-68
2023/01/15 03:32:53;;;;;;;0.00;0.00;;;6.50;82.20;;;;;;5025161;28;20076;-68
2023/01/15 03:35:58;;;;;;;6.78;1.85;;;6.60;82.20;;;;;;5017785;28;20749;-68
2023/01/15 03:38:34;;;;;;;0.03;0.03;;;6.50;81.40;;;;;;4925193;29;20043;-68
2023/01/15 03:41:37;;;;;;;0.10;0.10;;;6.50;81.60;;;;;;4919408;29;20095;-68
2023/01/15 03:44:19;;;;;;;;;;;6.60;81.10;;;;;;4999815;28;20559;-67
2023/01/15 03:47:06;;;;;;;0.00;0.00;;;6.60;80.70;;;;;;5010049;28;19965;-68
2023/01/15 03:49:56;;;;;;;1.75;0.63;;;6.60;80.30;;;;;;4999891;28;20520;-67
2023/01/15 03:52:30;;;;;;;0.00;0.00;;;6.60;80.60;;;;;;5017810;28;20084;-68
2023/01/15 03:55:07;;;;;;;0.08;0.08;;;6.50;80.50;;;;;;5028273;28;20096;-68
2023/01/15 03:57:41;;;;;;;0.00;0.00;;;6.60;80.10;;;;;;5030750;28;20037;-68
2023/01/15 04:00:14;;;;;;;0.00;0.00;;;6.60;80.10;;;;;;5028591;28;20100;-68
2023/01/15 04:02:41;;;;;;;0.30;0.30;;;6.60;80.60;;;;;;5017963;28;20046;-68
2023/01/15 04:05:07;;;;;;;0.00;0.00;;;6.60;80.60;;;;;;5012038;28;20045;-67
2023/01/15 04:07:32;;;;;;;0.08;0.08;;;6.60;80.20;;;;;;5024019;28;20044;-68
2023/01/15 04:09:58;;;;;;;0.43;0.43;;;6.50;80.10;;;;;;4998558;28;20050;-68
2023/01/15 04:12:26;;;;;;;0.00;0.00;;;6.50;79.90;;;;;;4987215;28;20078;-68
2023/01/15 04:14:52;;;;;;;2.28;2.08;;;6.50;80.10;;;;;;5016616;28;20510;-67
2023/01/15 04:17:18;;;;;;;0.10;0.10;;;6.50;80.40;;;;;;5025318;28;20046;-68
2023/01/15 04:19:43;;;;;;;0.00;0.00;;;6.50;80.10;;;;;;5016422;28;20104;-67
2023/01/15 04:22:10;;;;;;;0.00;0.00;;;6.50;80.00;;;;;;5011113;28;20107;-68
2023/01/15 04:24:36;;;;;;;9.80;3.40;;;6.50;80.20;;;;;;5011481;28;20609;-68
2023/01/15 04:27:02;;;;;;;0.00;0.00;;;6.50;80.50;;;;;;5015909;28;20046;-68
2023/01/15 04:29:27;;;;;;;0.00;0.00;;;6.50;80.60;;;;;;5030190;28;20471;-68
2023/01/15 04:31:56;;;;;;;0.08;0.08;;;6.40;80.80;;;;;;5020875;28;20809;-68
2023/01/15 04:34:26;;;;;;;0.00;0.00;;;6.40;80.60;;;;;;5030431;28;20049;-68
2023/01/15 04:36:52;;;;;;;0.00;0.00;;;6.50;80.40;;;;;;5005366;28;20073;-67
2023/01/15 04:39:17;;;;;;;0.00;0.00;;;6.50;80.20;;;;;;5010373;28;20074;-68
2023/01/15 04:44:28;;;;;;;0.00;0.00;;;6.40;80.80;;;;;;5014853;28;20070;-68
2023/01/15 04:46:56;;;;;;;0.00;0.00;;;6.30;80.40;;;;;;5019316;28;20080;-68
2023/01/15 04:49:22;;;;;;;0.00;0.00;;;6.30;80.30;;;;;;5007415;28;20048;-67
2023/01/15 04:51:48;;;;;;;0.00;0.00;;;6.30;80.10;;;;;;5014481;28;20512;-68
2023/01/15 04:54:15;;;;;;;8.93;2.85;;;6.30;79.90;;;;;;5020063;28;20081;-68
2023/01/15 04:56:53;;;;;;;0.00;0.00;;;6.40;80.10;;;;;;5023804;28;20057;-68
2023/01/15 04:59:24;;;;;;;0.13;0.13;;;6.20;80.00;;;;;;5009634;28;20120;-68
2023/01/15 05:01:50;;;;;;;1.45;1.35;;;6.30;79.70;;;;;;5021997;28;20108;-68
2023/01/15 05:04:16;;;;;;;0.10;0.10;;;6.30;79.50;;;;;;5025425;28;20087;-68
2023/01/15 05:06:41;;;;;;;0.08;0.08;;;6.30;79.50;;;;;;5018912;28;20033;-68
2023/01/15 05:09:07;;;;;;;0.00;0.00;;;6.20;78.90;;;;;;5023558;28;20044;-68
2023/01/15 05:11:37;;;;;;;0.00;0.00;;;6.40;78.70;;;;;;4994272;28;20432;-68
2023/01/15 05:14:04;;;;;;;0.73;0.73;;;6.30;78.50;;;;;;5016694;28;20049;-67
2023/01/15 05:16:30;;;;;;;0.00;0.00;;;6.40;78.40;;;;;;5019846;28;20045;-68
2023/01/15 05:18:59;;;;;;;0.10;0.10;;;6.20;78.90;;;;;;5014071;28;20049;-67
2023/01/15 05:21:27;;;;;;;0.00;0.00;;;6.10;79.50;;;;;;5018426;28;20048;-68
2023/01/15 05:23:56;;;;;;;1.60;1.50;;;6.10;79.30;;;;;;5023199;28;20119;-68
2023/01/15 05:26:22;;;;;;;0.00;0.00;;;6.10;79.00;;;;;;5012715;28;20088;-67
2023/01/15 05:28:48;;;;;;;0.00;0.00;;;6.10;78.60;;;;;;5012543;28;20045;-68
2023/01/15 05:31:16;;;;;;;0.00;0.00;;;6.20;78.40;;;;;;5028463;28;20128;-68
2023/01/15 05:33:43;;;;;;;22.65;4.00;;;6.10;77.80;;;;;;5009522;28;20041;-68
2023/01/15 05:36:12;;;;;;;0.45;0.45;;;6.10;78.30;;;;;;5020883;28;20414;-68
2023/01/15 05:38:38;;;;;;;0.73;0.68;;;6.10;78.20;;;;;;5017785;28;20047;-68
2023/01/15 05:43:50;;;;;;;0.00;0.00;;;6.10;78.30;;;;;;5009472;28;20046;-68
2023/01/15 05:46:16;;;;;;;0.00;0.00;;;6.10;78.20;;;;;;5009072;28;20510;-68
2023/01/15 05:48:41;;;;;;;0.63;0.63;;;6.10;77.70;;;;;;5007184;28;20033;-68
2023/01/15 05:51:07;;;;;;;0.00;0.00;;;6.20;77.50;;;;;;5012661;28;20052;-68
2023/01/15 05:53:33;;;;;;;0.00;0.00;;;6.20;77.60;;;;;;5015206;28;20033;-67
2023/01/15 05:56:03;;;;;;;0.00;0.00;;;6.10;77.70;;;;;;5014792;28;20154;-68
2023/01/15 05:58:28;;;;;;;4.13;2.75;;;6.10;77.80;;;;;;5017033;28;20557;-67
2023/01/15 06:00:54;;;;;;;0.00;0.00;;;6.10;77.80;;;;;;5016412;28;20054;-67
2023/01/15 06:03:25;;;;;;;2.47;1.75;;;6.20;77.30;;;;;;5018081;28;20049;-67
2023/01/15 06:05:51;;;;;;;0.00;0.00;;;6.10;77.40;;;;;;5016244;28;20034;-67
2023/01/15 06:08:17;;;;;;;1.60;0.65;;;6.10;77.40;;;;;;4984770;28;20153;-67
2023/01/15 06:10:47;;;;;;;0.03;0.03;;;6.10;77.30;;;;;;5007788;28;20204;-68
2023/01/15 06:13:13;;;;;;;0.00;0.00;;;6.10;76.70;;;;;;5010020;28;20058;-67
2023/01/15 06:15:39;;;;;;;0.05;0.05;;;6.10;76.50;;;;;;5018992;28;20509;-67
2023/01/15 06:18:05;;;;;;;0.00;0.00;;;6.10;76.50;;;;;;5008248;28;20057;-67
2023/01/15 06:20:33;;;;;;;0.00;0.00;;;6.10;76.30;;;;;;5016317;28;20426;-68
2023/01/15 06:22:59;;;;;;;0.00;0.00;;;6.00;76.10;;;;;;5007199;28;20533;-67
2023/01/15 06:25:24;;;;;;;0.00;0.00;;;6.00;76.40;;;;;;5008967;28;20042;-67
2023/01/15 06:27:50;;;;;;;0.00;0.00;;;6.10;76.50;;;;;;5008058;28;20053;-67
2023/01/15 06:30:16;;;;;;;0.05;0.05;;;6.10;76.00;;;;;;5008089;28;20041;-66
2023/01/15 06:32:41;;;;;;;0.00;0.00;;;6.10;76.10;;;;;;5007959;28;20053;-66
2023/01/15 06:35:07;;;;;;;0.17;0.17;;;6.10;75.90;;;;;;5008581;28;20763;-66
2023/01/15 06:37:33;;;;;;;0.00;0.00;;;6.00;75.70;;;;;;5006489;28;20046;-66
2023/01/15 06:39:58;;;;;;;0.00;0.00;;;6.00;75.00;;;;;;5008506;28;20065;-66
2023/01/15 06:47:55;;;;;;;0.00;0.00;;;6.00;75.70;;;;;;5007739;28;20525;-67
2023/01/15 06:50:21;;;;;;;0.00;0.00;;;6.00;76.60;;;;;;5008254;28;20518;-67
2023/01/15 06:52:46;;;;;;;0.10;0.10;;;5.90;77.40;;;;;;5007405;28;20057;-66
2023/01/15 06:55:12;;;;;;;0.00;0.00;;;6.00;77.40;;;;;;5007384;28;20077;-67
2023/01/15 06:57:39;;;;;;;0.75;0.75;;;5.90;77.80;;;;;;5007510;28;20047;-67
2023/01/15 07:00:06;;;;;;;0.00;0.00;;;5.90;78.40;;;;;;5008281;28;20099;-67
2023/01/15 07:02:32;;;;;;;0.00;0.00;;;6.00;78.20;;;;;;5008692;28;20050;-66
2023/01/15 07:04:57;;;;;;;0.08;0.08;;;6.00;77.80;;;;;;5006816;28;20073;-67
2023/01/15 07:07:23;;;;;;;0.00;0.00;;;6.00;77.30;;;;;;5009832;28;20030;-66
2023/01/15 07:09:49;;;;;;;0.00;0.00;;;6.10;76.40;;;;;;4993968;28;20072;-66
2023/01/15 07:12:15;;;;;;;0.00;0.00;;;6.20;76.60;;;;;;5011618;28;20410;-67
2023/01/15 07:14:40;;;;;;;0.00;0.00;;;6.10;76.90;;;;;;5011665;28;20060;-67
2023/01/15 07:17:06;;;;;;;0.00;0.00;;;6.10;77.10;;;;;;5011772;28;20034;-67
2023/01/15 07:19:32;;;;;;;0.00;0.00;;;6.10;77.40;;;;;;5011136;28;20046;-66
2023/01/15 07:21:57;;;;;;;0.00;0.00;;;6.10;77.40;;;;;;5011208;28;20042;-66
2023/01/15 07:24:23;;;;;;;0.00;0.00;;;6.00;77.60;;;;;;5011398;28;20061;-66
2023/01/15 07:26:48;;;;;;;0.32;0.32;;;6.10;77.80;;;;;;5011446;28;20034;-67
2023/01/15 07:29:14;;;;;;;0.05;0.05;;;6.10;77.00;;;;;;5014900;28;20411;-66
2023/01/15 07:31:40;;;;;;;0.08;0.08;;;6.10;76.80;;;;;;5010696;28;20042;-67
2023/01/15 07:34:06;;;;;;;0.00;0.00;;;6.10;76.90;;;;;;5018272;28;20414;-67
2023/01/15 07:36:32;;;;;;;0.28;0.28;;;6.10;76.90;;;;;;5011258;28;20042;-67
2023/01/15 07:38:57;;;;;;;0.00;0.00;;;6.10;76.80;;;;;;5011139;28;20045;-66
2023/01/15 07:49:44;;;;;;;0.00;0.00;;;6.10;75.20;;;;;;5005104;28;20600;-67
2023/01/15 07:52:10;;;;;;;0.22;0.22;;;6.10;75.00;;;;;;5008834;28;20056;-66
2023/01/15 07:54:36;;;;;;;0.00;0.00;;;6.10;74.40;;;;;;4995189;28;20054;-67
2023/01/15 07:57:02;;;;;;;0.52;0.52;;;6.10;74.40;;;;;;4992769;28;20049;-67
2023/01/15 07:59:28;;;;;;;0.00;0.00;;;6.10;75.00;;;;;;5010566;28;20053;-66
2023/01/15 08:01:54;;;;;;;1.77;1.10;;;6.00;75.30;;;;;;5010568;28;20054;-66
2023/01/15 08:04:19;;;;;;;0.10;0.10;;;6.00;75.30;;;;;;5010398;28;20728;-67
2023/01/15 08:06:45;;;;;;;0.10;0.10;;;6.10;75.00;;;;;;5008358;28;20939;-66
2023/01/15 08:09:10;;;;;;;0.00;0.00;;;6.00;75.00;;;;;;5010408;28;20050;-67
2023/01/15 08:17:04;;;;;;;0.00;0.00;;;6.10;75.60;;;;;;5004566;28;20046;-67
2023/01/15 08:19:30;;;;;;;0.55;0.55;;;6.10;76.00;;;;;;4992984;28;20057;-66
2023/01/15 08:21:56;;;;;;;0.00;0.00;;;6.10;75.50;;;;;;5005987;28;20586;-66
2023/01/15 08:24:23;;;;;;;0.00;0.00;;;6.10;75.80;;;;;;5010498;28;20050;-65
2023/01/15 08:26:51;;;;;;;0.00;0.00;;;6.10;75.40;;;;;;5009653;28;20042;-65
2023/01/15 08:29:16;;;;;;;0.00;0.00;;;6.10;75.90;;;;;;5005793;28;20065;-66
2023/01/15 08:31:42;;;;;;;0.00;0.00;;;6.00;76.60;;;;;;5009848;28;20042;-66
2023/01/15 08:34:08;;;;;;;0.08;0.08;;;6.00;77.00;;;;;;5004672;28;20061;-66
2023/01/15 08:36:33;;;;;;;0.00;0.00;;;6.00;77.30;;;;;;4996255;28;20046;-66
2023/01/15 08:38:59;;;;;;;0.00;0.00;;;5.90;78.00;;;;;;5009420;28;20136;-66
2023/01/15 08:41:25;;;;;;;0.15;0.15;;;5.90;78.40;;;;;;5008290;28;20165;-66
2023/01/15 08:43:50;;;;;;;0.00;0.00;;;5.80;79.00;;;;;;5009259;28;20048;-66
2023/01/15 08:46:16;;;;;;;0.15;0.15;;;5.80;79.20;;;;;;5009806;28;20064;-66
2023/01/15 08:48:43;;;;;;;0.10;0.10;;;5.80;79.50;;;;;;5009752;28;20080;-65
2023/01/15 08:51:10;;;;;;;0.00;0.00;;;5.80;79.90;;;;;;4999900;28;20104;-65
2023/01/15 08:53:36;;;;;;;0.00;0.00;;;5.90;80.40;;;;;;5007940;28;20038;-67
2023/01/15 08:56:02;;;;;;;0.03;0.03;;;5.90;80.30;;;;;;5009370;28;20092;-66
2023/01/15 08:58:29;;;;;;;0.00;0.00;;;6.00;80.50;;;;;;5010185;28;20052;-66
2023/01/15 09:00:54;;;;;;;0.10;0.10;;;6.00;80.30;;;;;;5010031;28;20068;-65
2023/01/15 09:03:20;;;;;;;0.00;0.00;;;5.90;79.70;;;;;;5011050;28;20663;-66
2023/01/15 09:05:46;;;;;;;0.08;0.08;;;6.00;79.80;;;;;;5001949;28;20088;-66
2023/01/15 09:08:11;;;;;;;0.00;0.00;;;6.00;80.10;;;;;;5021962;28;20041;-66
2023/01/15 09:10:37;;;;;;;0.65;0.63;;;6.00;80.00;;;;;;4994386;28;20042;-66
2023/01/15 09:13:03;;;;;;;0.00;0.00;;;6.00;80.40;;;;;;4999160;28;20085;-65
2023/01/15 09:15:31;;;;;;;0.00;0.00;;;6.10;80.10;;;;;;5008358;28;20581;-65
2023/01/15 09:17:57;;;;;;;0.00;0.00;;;6.10;80.00;;;;;;4993019;28;20057;-66
2023/01/15 09:20:23;;;;;;;9.68;3.20;;;6.20;80.00;;;;;;5009460;28;20034;-66
2023/01/15 09:22:49;;;;;;;0.00;0.00;;;6.30;79.40;;;;;;4998948;28;20044;-65
2023/01/15 09:25:18;;;;;;;0.00;0.00;;;6.40;79.00;;;;;;4975522;28;20095;-65
2023/01/15 09:27:44;;;;;;;1.80;1.70;;;6.40;78.30;;;;;;5002046;28;20120;-67
2023/01/15 09:30:17;;;;;;;0.00;0.00;;;6.50;78.40;;;;;;5003055;28;20816;-67
2023/01/15 09:32:43;;;;;;;0.45;0.45;;;6.50;77.30;;;;;;4997037;28;20049;-66
2023/01/15 09:35:09;;;;;;;0.00;0.00;;;6.60;77.30;;;;;;5001865;28;20060;-66
2023/01/15 09:37:34;;;;;;;0.00;0.00;;;6.60;77.50;;;;;;5008458;28;20045;-66
2023/01/15 09:40:01;;;;;;;0.00;0.00;;;6.60;77.90;;;;;;4999125;28;20050;-67
2023/01/15 09:42:39;;;;;;;5.72;3.42;;;6.60;78.10;;;;;;5008173;28;20675;-66
2023/01/15 09:45:21;;;;;;;0.00;0.00;;;6.60;78.10;;;;;;5008448;28;20529;-66
2023/01/15 09:48:07;;;;;;;0.00;0.00;;;6.60;78.50;;;;;;5006751;28;20054;-66
2023/01/15 09:50:45;;;;;;;0.00;0.00;;;6.60;79.00;;;;;;5008823;28;20041;-66
2023/01/15 09:53:25;;;;;;;0.00;0.00;;;6.60;79.20;;;;;;5007128;28;20132;-68
2023/01/15 09:55:53;;;;;;;0.00;0.00;;;6.70;78.70;;;;;;5002610;28;20045;-65
2023/01/15 09:58:25;;;;;;;0.00;0.00;;;6.80;78.00;;;;;;5007381;28;20053;-64
2023/01/15 10:00:51;;;;;;;0.00;0.00;;;6.90;78.30;;;;;;5006621;28;20053;-65
2023/01/15 10:03:41;;;;;;;0.00;0.00;;;6.90;77.00;;;;;;5007327;28;20053;-65
2023/01/15 10:06:24;;;;;;;0.00;0.00;;;6.90;76.70;;;;;;5008412;28;20038;-65
2023/01/15 10:08:55;;;;;;;0.30;0.30;;;7.00;77.90;;;;;;4989670;28;20440;-66
2023/01/15 10:12:34;;;;;;;0.00;0.00;;;6.80;78.80;;;;;;4998390;28;20099;-65
2023/01/15 10:14:29;;;;;;;0.00;0.00;;;6.80;79.00;;;;;;5006475;28;20050;-66
2023/01/15 10:16:54;;;;;;;0.05;0.05;;;6.90;79.50;;;;;;5008969;28;20050;-65
2023/01/15 10:19:21;;;;;;;0.00;0.00;;;7.00;79.20;;;;;;5008030;28;20048;-66
2023/01/15 10:21:53;;;;;;;0.00;0.00;;;7.00;78.70;;;;;;5007965;28;20042;-66
2023/01/15 10:24:24;;;;;;;0.17;0.17;;;7.10;78.10;;;;;;4989714;28;20046;-65
2023/01/15 10:26:55;;;;;;;0.00;0.00;;;7.10;77.80;;;;;;5005364;28;20050;-65
2023/01/15 10:29:38;;;;;;;0.00;0.00;;;7.10;78.00;;;;;;5009308;28;20042;-66
2023/01/15 10:32:21;;;;;;;0.00;0.00;;;7.10;77.50;;;;;;5008845;28;20050;-66
2023/01/15 10:35:18;;;;;;;0.00;0.00;;;7.10;77.90;;;;;;5009179;28;20100;-65
2023/01/15 10:38:32;;;;;;;0.00;0.00;;;7.10;77.50;;;;;;5008782;28;20053;-66
2023/01/15 10:41:33;;;;;;;0.10;0.10;;;7.10;77.10;;;;;;5011582;28;20041;-66
2023/01/15 10:44:10;;;;;;;0.00;0.00;;;7.10;77.30;;;;;;4985096;28;20124;-65
2023/01/15 10:46:39;;;;;;;0.00;0.00;;;7.20;77.00;;;;;;5012689;28;20042;-65
2023/01/15 10:49:14;;;;;;;0.55;0.55;;;7.30;76.80;;;;;;5012874;28;20045;-65
2023/01/15 10:51:44;;;;;;;0.10;0.10;;;7.40;76.80;;;;;;5011705;28;20124;-65
2023/01/15 10:54:24;;;;;;;0.22;0.22;;;7.40;76.20;;;;;;5012645;28;20141;-65
2023/01/15 10:57:17;;;;;;;0.10;0.10;;;7.40;76.50;;;;;;5014400;28;20509;-65
2023/01/15 10:59:56;;;;;;;0.00;0.00;;;7.50;75.90;;;;;;5012816;28;20046;-66
2023/01/15 11:02:38;;;;;;;0.00;0.00;;;7.60;75.90;;;;;;5001062;28;20129;-65
2023/01/15 11:05:04;;;;;;;0.00;0.00;;;7.60;75.80;;;;;;4993249;28;20398;-66
2023/01/15 11:07:48;;;;;;;0.00;0.00;;;7.50;75.40;;;;;;5027512;28;20157;-67
2023/01/15 11:10:16;;;;;;;0.00;0.00;;;7.50;75.70;;;;;;4999916;28;20137;-68
2023/01/15 11:21:19;;;;;;;7.80;4.07;;;7.60;75.90;;;;;;5000547;28;20068;-66
2023/01/15 11:23:45;;;;;;;0.00;0.00;;;7.50;75.60;;;;;;5012192;28;20046;-65
2023/01/15 11:26:26;;;;;;;0.00;0.00;;;7.40;76.20;;;;;;5011783;28;20037;-65
2023/01/15 11:28:53;;;;;;;0.10;0.10;;;7.50;76.10;;;;;;4993893;28;20072;-65
2023/01/15 11:31:19;;;;;;;0.03;0.03;;;7.60;76.20;;;;;;5010541;28;20041;-65
2023/01/15 11:33:57;;;;;;;0.00;0.00;;;7.50;76.80;;;;;;5011964;28;20049;-65
2023/01/15 11:36:25;;;;;;;0.13;0.13;;;7.40;77.00;;;;;;5011844;28;20042;-66
2023/01/15 11:38:51;;;;;;;0.00;0.00;;;7.40;77.30;;;;;;5010314;28;20046;-65
2023/01/15 11:52:42;;;;;;;0.00;0.00;;;7.30;77.70;;;;;;5010736;28;20042;-65
2023/01/15 11:55:18;;;;;;;0.00;0.00;;;7.40;78.00;;;;;;5011826;28;20535;-65
2023/01/15 11:57:45;;;;;;;0.00;0.00;;;7.30;77.40;;;;;;5010930;28;20045;-65
2023/01/15 12:00:22;;;;;;;2.70;2.55;;;7.40;76.60;;;;;;4993722;28;20053;-66
2023/01/15 12:02:50;;;;;;;0.00;0.00;;;7.40;77.10;;;;;;5010599;28;20042;-66
2023/01/15 12:05:23;;;;;;;0.00;0.00;;;7.40;77.20;;;;;;5020866;28;20128;-66
2023/01/15 12:07:51;;;;;;;0.10;0.10;;;7.30;78.40;;;;;;5022355;28;20080;-66
2023/01/15 12:13:47;;;;;;;0.57;0.57;;;6.50;85.80;;;;;;5014207;28;20058;-64
2023/01/15 12:16:44;;;;;;;0.00;0.00;;;6.10;87.30;;;;;;5022832;28;20128;-64
2023/01/15 12:19:41;;;;;;;0.00;0.00;;;6.00;88.10;;;;;;5015995;28;20529;-63
2023/01/15 12:22:23;;;;;;;0.00;0.00;;;6.00;88.20;;;;;;5011096;28;20050;-64
2023/01/15 12:25:15;;;;;;;0.00;0.00;;;5.90;89.10;;;;;;5008557;28;20037;-64
2023/01/15 12:27:56;;;;;;;0.10;0.10;;;5.80;89.30;;;;;;4995889;28;20054;-64
2023/01/15 12:30:58;;;;;;;0.00;0.00;;;5.80;89.20;;;;;;5007268;28;20469;-66
2023/01/15 12:33:34;;;;;;;;;;;5.80;89.20;;;;;;5007409;28;20124;-67
2023/01/15 12:36:08;;;;;;;0.00;0.00;;;5.70;89.30;;;;;;5007271;28;19926;-67
2023/01/15 12:38:45;;;;;;;0.00;0.00;;;5.60;89.80;;;;;;5009541;28;20083;-68
2023/01/15 12:41:21;;;;;;;0.00;0.00;;;5.60;89.90;;;;;;5009732;28;20033;-67
2023/01/15 12:46:41;;;;;;;0.00;0.00;;;5.80;89.20;;;;;;5009271;28;20499;-67
2023/01/15 12:49:38;;;;;;;0.00;0.00;;;5.70;89.60;;;;;;5008340;28;20037;-67
2023/01/15 12:52:09;;;;;;;0.00;0.00;;;5.70;89.70;;;;;;5000333;28;20046;-67
2023/01/15 12:54:44;;;;;;;0.08;0.08;;;5.70;89.80;;;;;;5010923;28;20045;-67
2023/01/15 12:57:15;;;;;;;0.00;0.00;;;5.80;89.40;;;;;;5007805;28;20053;-67
2023/01/15 12:59:53;;;;;;;0.10;0.10;;;5.80;89.30;;;;;;5030361;28;20065;-67
2023/01/15 13:02:36;;;;;;;0.00;0.00;;;5.80;88.60;;;;;;5029593;28;20088;-67
2023/01/15 13:05:28;;;;;;;0.10;0.10;;;5.90;88.70;;;;;;5030365;28;20045;-67
2023/01/15 13:08:15;;;;;;;0.00;0.00;;;5.80;89.30;;;;;;5023567;28;20407;-67
2023/01/15 13:10:41;;;;;;;0.10;0.10;;;5.80;89.60;;;;;;5010587;28;20050;-67
2023/01/15 13:13:15;;;;;;;0.00;0.00;;;5.90;89.40;;;;;;5010121;28;20081;-67
2023/01/15 13:15:59;;;;;;;0.00;0.00;;;5.90;89.00;;;;;;5026101;28;20048;-67
2023/01/15 13:18:57;;;;;;;0.00;0.00;;;6.00;89.00;;;;;;5029895;28;20395;-67
2023/01/15 13:21:24;;;;;;;0.00;0.00;;;6.10;88.80;;;;;;5030129;28;20060;-67
2023/01/15 13:24:07;;;;;;;0.00;0.00;;;6.10;88.70;;;;;;5029514;28;20056;-67
2023/01/15 13:26:55;;;;;;;7.90;3.00;;;6.10;88.80;;;;;;5024542;28;20042;-67
2023/01/15 13:29:49;;;;;;;0.00;0.00;;;6.10;89.00;;;;;;4976607;28;20052;-67
2023/01/15 13:32:33;;;;;;;0.00;0.00;;;6.20;88.50;;;;;;5004707;28;20041;-67
2023/01/15 13:35:04;;;;;;;0.00;0.00;;;6.30;88.50;;;;;;5029737;28;20099;-67
2023/01/15 13:37:42;;;;;;;0.00;0.00;;;6.30;88.50;;;;;;5009627;28;20080;-67
2023/01/15 13:40:37;;;;;;;0.03;0.03;;;6.20;88.70;;;;;;5009660;28;20037;-67
2023/01/15 13:43:05;;;;;;;0.00;0.00;;;6.20;88.80;;;;;;4991830;28;20046;-67
2023/01/15 13:45:37;;;;;;;2.00;1.90;;;6.30;88.80;;;;;;5009401;28;20491;-67
2023/01/15 13:48:23;;;;;;;0.10;0.10;;;6.40;88.90;;;;;;5009000;28;20574;-67
2023/01/15 13:50:52;;;;;;;0.00;0.00;;;6.40;89.30;;;;;;5007122;28;20042;-67
2023/01/15 13:53:44;;;;;;;0.10;0.10;;;6.30;89.40;;;;;;5008370;28;20753;-67
2023/01/15 13:56:24;;;;;;;1.38;0.95;;;6.30;89.00;;;;;;5008213;28;20057;-68
2023/01/15 13:58:55;;;;;;;0.00;0.00;;;6.30;88.00;;;;;;5006209;28;20056;-68
2023/01/15 14:01:32;;;;;;;0.15;0.15;;;6.30;87.70;;;;;;5008283;28;20041;-68
2023/01/15 14:04:11;;;;;;;0.00;0.00;;;6.30;87.60;;;;;;5009376;28;20099;-68
2023/01/15 14:06:37;;;;;;;0.00;0.00;;;6.40;87.90;;;;;;4990715;28;20057;-67
2023/01/15 14:09:04;;;;;;;0.00;0.00;;;6.40;88.30;;;;;;4998874;28;20038;-69
2023/01/15 14:11:41;;;;;;;0.00;0.00;;;6.50;88.80;;;;;;5011618;28;20034;-69
2023/01/15 14:14:15;;;;;;;0.00;0.00;;;6.40;88.90;;;;;;4996952;28;20046;-68
2023/01/15 14:16:55;;;;;;;0.38;0.35;;;6.50;88.70;;;;;;4989699;28;20081;-69